Decoded Metar for UGTB (TBILISI/NOVO-AL in GEORGIA) (IATA:N/A) | Meteo·Mobile Aviation Weather
aviador You're here:

UGTB Decoded Metar

TBILISI/NOVO-AL in GEORGIA
Report Time2019-03-23 08:00:00
UTC Time2019-03-23 08:15:20
Flight Rules vfr VFR
Wind310° at 13 kt
W.Decomp.*RWY 31: 13.0 kt HW 0.9 kt LCW
W.Rank310° ranks 1
Current wind is below 310° avg. (17.5)
Visibility9999 m
Phenomena:N/A
Clouds:Scattered 070 Hf
Expected CloudBase > 4,000 ft AGL from Temp-Dew spread
CeilingNone
Temp08°C (ISA -4)
Dew Point-2°C (50% RH)
AAT1.1°C
QNH1020 hPa
Density Alt1,014 ft
Elevation1,624 ft
Report Wrong Elevation
Raw Report
METAR UGTB 230800Z 31013KT 9999 SCT070 08/M02 Q1020 NOSIG=

Extra information for UGTB:More info

Metar Taf Metar & Taf Last 4 Metars F.Rules Stats Wind Profile Meteogram Temp Stats Airport Information Weather charts Add Link Nearby VenuesMetar ALERT Operation Metar Decoded Social comments